Terminal Aerodrome Forecast
Issued by NWS Cleveland, OH

Home | Current Version | Previous Version | Graphics & Text | Print | Product List | Glossary On
Versions: 1 2 3 4 5 6 7 8 9 10 11 12 13 14 15 16 17 18 19 20 21 22
000
FTUS41 KCLE 010500
TAFCAK
TAF
KCAK 010520Z 0106/0206 10005KT 6SM -SN SCT015 OVC035
     FM010700 12005KT 3SM -SN OVC025
      TEMPO 0107/0109 1SM -SN OVC012
     FM010900 17005KT 1SM -SN OVC012
     FM011200 18005KT 1/2SM SN FZFG OVC006
     FM012100 23006KT 1 1/2SM -SN OVC010
     FM020000 24005KT 3SM -SN OVC015=

USA.gov is the U.S. government's official web portal to all federal, state and local government web resources and services.